Abell, MD

10:14 PM EDT on May 05, 2015 (GMT -0400)
APRSWXNET | | Change Station
CLOSE
Current Station
Personal Weather Station
Location: Cobb Island, MD
Elevation: 13 ft
Nearby Weather Stations

Elev 13 ft 38.27 °N, 76.85 °W | Updated 41 minutes ago

Rain
Rain
67 °F
Feels Like 67 °F
N
2
Wind Variable Wind from SW
Gusts 0.0 mph

Today
High -- | Low -- °F
--% Chance of Precip.
Yesterday
High -- | Low -- °F
Precip. -- in
6:06 AM 8:01 PM
Waning Gibbous, 96% visible
Pressure 30.27 in
Visibility 4.0 miles
Clouds Scattered Clouds 7000 ft
Scattered Clouds 8000 ft
Overcast 10000 ft
Dew Point 64 °F
Humidity 89%
Rainfall in
Snow Depth Not available.
UV 0 out of 12
Pollen 9.20 out of 12
Air Quality Not available.
Flu Activity Local Activity
METAR K2W6 060155Z AUTO 00000KT 4SM SCT070 SCT080 OVC100 17/16 A3027 RMK AO1

More Conditions Fewer Conditions

Pressure 30.27 in
Visibility 4.0 miles
Clouds Scattered Clouds 7000 ft
Scattered Clouds 8000 ft
Overcast 10000 ft
Dew Point 64 °F
Humidity 89%
Rainfall in
Snow Depth Not available.
UV 0 out of 12
Pollen 9.20 out of 12
Air Quality Not available.
Flu Activity Local Activity
METAR K2W6 060155Z AUTO 00000KT 4SM SCT070 SCT080 OVC100 17/16 A3027 RMK AO1

More Conditions Fewer Conditions

10-Day Weather Forecast

Almanac

Astronomy

May. 05, 2015 Rise Set
Actual Time
Civil Twilight
Nautical Twilight
Astronomical Twilight
Moon
Length of Visible Light
Length of Day
Tomorrow will be .
, % of the Moon is Illuminated

Today's Extremes

State Highs State Lows

Community

WunderPhotos

Upload Photos

1,819,041 photos uploaded!

WunderBlogs® & News

Nearby

Air Quality

  Air Quality AQ Index Pollutant
Not available.

Snow Depth

Station Depth Elevation

Earthquake Activity

City Distance Mag. Time & Date
Minimum magnitude displayed is 2.5.

Coastal Water Temperatures

Place Temperature

Stations

Nearby Weather Stations

Station Location Temp. Windchill Dew Point Humidity Wind Precip. Elev Updated Type